Time;durP1;ratioP1;P1;durP2;ratioP2;P2;SDS_P1;SDS_P2;PMS_P1;PMS_P2;Temp;Humidity;BMP_temperature;BMP_pressure;BME280_temperature;BME280_humidity;BME280_pressure;Samples;Min_cycle;Max_cycle;Signal;HPM_P1;HPM_P2
2023/11/25 00:00:42;;;;;;;0.10;0.10;;;;;;;;;;4990042;28;20502;-78
2023/11/25 00:03:09;;;;;;;0.20;0.20;;;;;;;;;;4998007;28;20488;-78
2023/11/25 00:05:35;;;;;;;0.20;0.20;;;;;;;;;;4996044;28;20037;-78
2023/11/25 00:08:01;;;;;;;0.20;0.20;;;;;;;;;;4998188;28;20030;-78
2023/11/25 00:10:27;;;;;;;0.10;0.10;;;;;;;;;;4996942;28;20034;-77
2023/11/25 00:12:53;;;;;;;0.20;0.20;;;;;;;;;;4990150;28;20027;-79
2023/11/25 00:15:19;;;;;;;0.00;0.00;;;;;;;;;;5044867;22;20062;-79
2023/11/25 00:17:46;;;;;;;0.20;0.20;;;;;;;;;;5003357;28;20026;-78
2023/11/25 00:20:12;;;;;;;0.20;0.20;;;;;;;;;;5004160;28;20046;-79
2023/11/25 00:22:38;;;;;;;0.20;0.20;;;;;;;;;;5005615;28;20022;-78
2023/11/25 00:25:04;;;;;;;0.25;0.25;;;;;;;;;;5004295;28;20074;-78
2023/11/25 00:27:30;;;;;;;0.22;0.10;;;;;;;;;;5003110;28;20035;-80
2023/11/25 00:29:57;;;;;;;0.20;0.20;;;;;;;;;;5018344;28;20057;-78
2023/11/25 00:32:23;;;;;;;0.20;0.17;;;;;;;;;;5003270;28;20029;-78
2023/11/25 00:34:49;;;;;;;1.45;0.38;;;;;;;;;;5006721;28;20037;-78
2023/11/25 00:37:16;;;;;;;2.28;0.20;;;;;;;;;;5005276;28;20022;-80
2023/11/25 00:39:42;;;;;;;0.28;0.28;;;;;;;;;;5004993;28;20023;-78
2023/11/25 00:42:08;;;;;;;0.30;0.30;;;;;;;;;;5002380;28;20117;-78
2023/11/25 00:44:34;;;;;;;0.85;0.22;;;;;;;;;;5007193;28;20041;-78
2023/11/25 00:47:02;;;;;;;0.15;0.15;;;;;;;;;;5009959;28;20034;-78
2023/11/25 00:49:29;;;;;;;0.38;0.30;;;;;;;;;;4989797;28;20059;-78
2023/11/25 00:51:55;;;;;;;0.30;0.30;;;;;;;;;;5017359;28;20141;-80
2023/11/25 00:54:23;;;;;;;0.20;0.20;;;;;;;;;;5000887;28;20029;-80
2023/11/25 00:56:49;;;;;;;0.10;0.10;;;;;;;;;;5003272;28;20045;-78
2023/11/25 00:59:15;;;;;;;0.30;0.20;;;;;;;;;;5018052;28;20077;-79
2023/11/25 01:01:41;;;;;;;0.30;0.30;;;;;;;;;;5004228;28;20030;-79
2023/11/25 01:04:07;;;;;;;0.35;0.30;;;;;;;;;;5018760;28;20030;-79
2023/11/25 01:06:33;;;;;;;0.25;0.25;;;;;;;;;;5026239;28;20026;-79
2023/11/25 01:09:00;;;;;;;0.20;0.20;;;;;;;;;;5003488;28;20030;-79
2023/11/25 01:11:26;;;;;;;0.28;0.28;;;;;;;;;;5012813;28;20025;-79
2023/11/25 01:13:52;;;;;;;0.20;0.20;;;;;;;;;;5017398;28;20034;-79
2023/11/25 01:16:18;;;;;;;0.40;0.40;;;;;;;;;;5010464;28;20023;-78
2023/11/25 01:18:45;;;;;;;0.30;0.22;;;;;;;;;;5007291;28;20057;-79
2023/11/25 01:21:11;;;;;;;0.30;0.13;;;;;;;;;;5006039;28;20035;-78
2023/11/25 01:23:37;;;;;;;0.30;0.30;;;;;;;;;;5003770;28;20030;-79
2023/11/25 01:26:03;;;;;;;0.52;0.52;;;;;;;;;;5002648;28;20045;-79
2023/11/25 01:28:29;;;;;;;0.40;0.40;;;;;;;;;;5000015;28;20026;-79
2023/11/25 01:30:56;;;;;;;0.43;0.43;;;;;;;;;;4997120;28;20069;-79
2023/11/25 01:33:22;;;;;;;0.30;0.30;;;;;;;;;;5000561;28;20030;-79
2023/11/25 01:35:48;;;;;;;0.40;0.20;;;;;;;;;;5003005;28;20018;-80
2023/11/25 01:38:14;;;;;;;0.20;0.20;;;;;;;;;;5003276;28;20031;-79
2023/11/25 01:40:40;;;;;;;0.28;0.28;;;;;;;;;;5001291;28;20038;-79
2023/11/25 01:43:14;;;;;;;0.65;0.20;;;;;;;;;;4999771;28;20026;-80
2023/11/25 01:45:40;;;;;;;0.20;0.20;;;;;;;;;;5013158;28;20033;-79
2023/11/25 01:48:06;;;;;;;0.22;0.15;;;;;;;;;;5001327;28;20027;-79
2023/11/25 01:50:36;;;;;;;0.32;0.32;;;;;;;;;;5002075;28;20026;-79
2023/11/25 01:53:04;;;;;;;0.20;0.20;;;;;;;;;;5004002;28;20357;-78
2023/11/25 01:55:32;;;;;;;0.43;0.30;;;;;;;;;;5004550;28;20023;-78
2023/11/25 01:57:59;;;;;;;0.25;0.25;;;;;;;;;;5001658;28;20030;-80
2023/11/25 02:00:25;;;;;;;1.02;0.17;;;;;;;;;;5010435;28;20047;-79
2023/11/25 02:02:51;;;;;;;0.20;0.20;;;;;;;;;;5010446;28;20074;-79
2023/11/25 02:05:17;;;;;;;0.38;0.20;;;;;;;;;;5001353;28;20057;-77
2023/11/25 02:07:44;;;;;;;0.38;0.30;;;;;;;;;;5005256;28;20118;-79
2023/11/25 02:10:11;;;;;;;0.75;0.30;;;;;;;;;;5009575;28;20034;-78
2023/11/25 02:12:40;;;;;;;0.20;0.20;;;;;;;;;;5007517;28;20385;-79
2023/11/25 02:15:10;;;;;;;0.30;0.30;;;;;;;;;;5006869;28;20129;-78
2023/11/25 02:17:37;;;;;;;0.50;0.40;;;;;;;;;;5025624;28;20358;-78
2023/11/25 02:20:04;;;;;;;0.85;0.30;;;;;;;;;;5011578;28;20038;-80
2023/11/25 02:22:30;;;;;;;0.30;0.30;;;;;;;;;;5009279;28;20026;-80
2023/11/25 02:24:56;;;;;;;0.30;0.30;;;;;;;;;;5013623;28;20026;-78
2023/11/25 02:27:23;;;;;;;0.88;0.50;;;;;;;;;;5005973;28;20095;-77
2023/11/25 02:29:50;;;;;;;0.32;0.32;;;;;;;;;;5020326;28;20069;-79
2023/11/25 02:32:17;;;;;;;0.55;0.55;;;;;;;;;;5018307;28;20081;-76
2023/11/25 02:34:43;;;;;;;0.80;0.50;;;;;;;;;;5012939;28;20032;-79
2023/11/25 02:37:09;;;;;;;1.90;0.80;;;;;;;;;;5002464;28;20023;-78
2023/11/25 02:39:37;;;;;;;2.40;0.73;;;;;;;;;;5009183;28;20076;-78
2023/11/25 02:42:06;;;;;;;1.50;0.63;;;;;;;;;;5020825;28;20054;-78
2023/11/25 02:44:32;;;;;;;1.67;1.13;;;;;;;;;;5013932;28;20094;-78
2023/11/25 02:46:58;;;;;;;1.70;0.80;;;;;;;;;;5005243;28;20033;-80
2023/11/25 02:49:25;;;;;;;1.40;0.88;;;;;;;;;;5013471;28;20480;-80
2023/11/25 02:51:53;;;;;;;2.13;0.90;;;;;;;;;;5005243;28;20572;-80
2023/11/25 02:54:20;;;;;;;2.42;0.80;;;;;;;;;;5005908;28;20022;-79
2023/11/25 02:56:46;;;;;;;0.73;0.70;;;;;;;;;;5013531;28;20026;-80
2023/11/25 02:59:12;;;;;;;3.13;0.93;;;;;;;;;;5005139;28;20067;-79
2023/11/25 03:01:47;;;;;;;4.85;1.10;;;;;;;;;;5003918;28;20054;-77
2023/11/25 03:04:13;;;;;;;2.08;0.77;;;;;;;;;;5023395;28;20046;-79
2023/11/25 03:06:39;;;;;;;3.25;1.05;;;;;;;;;;5005225;28;20323;-79
2023/11/25 03:09:09;;;;;;;1.70;0.65;;;;;;;;;;5034800;28;20176;-80
2023/11/25 03:11:35;;;;;;;2.60;0.90;;;;;;;;;;5011671;28;20039;-79
2023/11/25 03:14:01;;;;;;;1.40;0.90;;;;;;;;;;5017721;28;20042;-79
2023/11/25 03:16:29;;;;;;;1.85;0.88;;;;;;;;;;5010011;28;20030;-79
2023/11/25 03:18:56;;;;;;;2.53;0.90;;;;;;;;;;5003310;28;20094;-80
2023/11/25 03:21:22;;;;;;;2.80;0.80;;;;;;;;;;5001290;28;20437;-80
2023/11/25 03:23:48;;;;;;;3.88;0.82;;;;;;;;;;5011791;28;20046;-78
2023/11/25 03:26:15;;;;;;;1.83;0.80;;;;;;;;;;5019881;28;20022;-78
2023/11/25 03:28:41;;;;;;;1.15;0.68;;;;;;;;;;5019098;28;20019;-78
2023/11/25 03:31:08;;;;;;;0.63;0.52;;;;;;;;;;5019734;28;20041;-78
2023/11/25 03:33:34;;;;;;;0.70;0.40;;;;;;;;;;5019410;28;20183;-79
2023/11/25 03:36:00;;;;;;;4.07;0.65;;;;;;;;;;5035254;28;20049;-79
2023/11/25 03:38:26;;;;;;;0.40;0.40;;;;;;;;;;5027684;28;20052;-79
2023/11/25 03:40:53;;;;;;;0.80;0.60;;;;;;;;;;5019525;28;20022;-79
2023/11/25 03:43:21;;;;;;;1.55;0.43;;;;;;;;;;5015612;28;20034;-80
2023/11/25 03:45:47;;;;;;;2.83;0.70;;;;;;;;;;5014698;28;20054;-81
2023/11/25 03:48:14;;;;;;;1.77;0.55;;;;;;;;;;5007713;28;20393;-81
2023/11/25 03:50:40;;;;;;;1.15;0.40;;;;;;;;;;5008164;28;20030;-79
2023/11/25 03:53:06;;;;;;;2.28;0.80;;;;;;;;;;5007496;28;20030;-80
2023/11/25 03:55:32;;;;;;;3.03;1.35;;;;;;;;;;5021408;28;20034;-79
2023/11/25 03:58:01;;;;;;;2.67;1.00;;;;;;;;;;5021478;28;20029;-78
2023/11/25 04:00:27;;;;;;;0.45;0.40;;;;;;;;;;5003441;28;20022;-81
2023/11/25 04:02:53;;;;;;;1.23;0.90;;;;;;;;;;5000516;28;20038;-80
2023/11/25 04:05:19;;;;;;;2.30;0.85;;;;;;;;;;5014945;28;20101;-81
2023/11/25 04:07:46;;;;;;;2.42;0.75;;;;;;;;;;4999728;28;20117;-82
2023/11/25 04:10:13;;;;;;;2.35;0.80;;;;;;;;;;5015195;28;20030;-80
2023/11/25 04:12:40;;;;;;;1.90;0.43;;;;;;;;;;4999551;28;20089;-81
2023/11/25 04:15:07;;;;;;;1.30;0.60;;;;;;;;;;5000885;28;20026;-81
2023/11/25 04:17:34;;;;;;;3.33;1.00;;;;;;;;;;5016635;28;20019;-81
2023/11/25 04:20:00;;;;;;;2.15;0.82;;;;;;;;;;5008994;28;20369;-80
2023/11/25 04:22:27;;;;;;;2.33;0.63;;;;;;;;;;5000084;28;20026;-80
2023/11/25 04:24:53;;;;;;;2.03;0.52;;;;;;;;;;5000694;28;20053;-80
2023/11/25 04:27:21;;;;;;;2.70;0.70;;;;;;;;;;5009278;28;20022;-80
2023/11/25 04:29:47;;;;;;;2.40;0.75;;;;;;;;;;5014782;28;20029;-80
2023/11/25 04:32:13;;;;;;;2.13;0.57;;;;;;;;;;4999435;28;20098;-78
2023/11/25 04:34:39;;;;;;;0.98;0.32;;;;;;;;;;5002028;28;20023;-80
2023/11/25 04:37:05;;;;;;;0.90;0.60;;;;;;;;;;5002926;28;20437;-80
2023/11/25 04:39:31;;;;;;;5.35;0.57;;;;;;;;;;5001723;28;20161;-80
2023/11/25 04:41:57;;;;;;;1.85;0.40;;;;;;;;;;5002592;28;20393;-80
2023/11/25 04:44:23;;;;;;;2.75;0.80;;;;;;;;;;5003504;28;20092;-80
2023/11/25 04:46:50;;;;;;;1.00;0.70;;;;;;;;;;5000579;28;20046;-80
2023/11/25 04:49:16;;;;;;;2.83;0.73;;;;;;;;;;5001309;28;20046;-77
2023/11/25 04:51:44;;;;;;;3.35;0.70;;;;;;;;;;5001573;28;20027;-78
2023/11/25 04:54:10;;;;;;;2.25;1.20;;;;;;;;;;5008331;28;20026;-79
2023/11/25 04:56:37;;;;;;;2.47;0.93;;;;;;;;;;5003131;28;20133;-80
2023/11/25 04:59:06;;;;;;;1.98;0.63;;;;;;;;;;5007123;28;20447;-77
2023/11/25 05:01:32;;;;;;;3.35;0.68;;;;;;;;;;5013946;28;20038;-75
2023/11/25 05:03:58;;;;;;;1.02;0.80;;;;;;;;;;5006848;28;20034;-76
2023/11/25 05:06:24;;;;;;;0.50;0.40;;;;;;;;;;5002067;28;20078;-77
2023/11/25 05:08:51;;;;;;;2.90;0.88;;;;;;;;;;4996562;28;20509;-78
2023/11/25 05:11:17;;;;;;;5.03;0.80;;;;;;;;;;4997087;28;20027;-77
2023/11/25 05:13:43;;;;;;;4.07;0.70;;;;;;;;;;5000844;28;20027;-79
2023/11/25 05:16:10;;;;;;;1.42;0.40;;;;;;;;;;5000206;28;20057;-78
2023/11/25 05:18:36;;;;;;;0.80;0.50;;;;;;;;;;5001485;28;20052;-79
2023/11/25 05:21:03;;;;;;;3.80;0.55;;;;;;;;;;5001552;28;20034;-79
2023/11/25 05:23:29;;;;;;;0.88;0.50;;;;;;;;;;5016376;28;20077;-78
2023/11/25 05:25:56;;;;;;;1.08;0.40;;;;;;;;;;5002439;28;20026;-78
2023/11/25 05:28:22;;;;;;;0.82;0.40;;;;;;;;;;5005531;28;20037;-78
2023/11/25 05:30:48;;;;;;;1.52;0.45;;;;;;;;;;5002180;28;20058;-78
2023/11/25 05:33:14;;;;;;;3.50;0.70;;;;;;;;;;5004117;28;20050;-76
2023/11/25 05:35:40;;;;;;;1.88;0.60;;;;;;;;;;5008224;28;20034;-77
2023/11/25 05:38:08;;;;;;;0.68;0.52;;;;;;;;;;5011386;28;20037;-75
2023/11/25 05:40:36;;;;;;;2.90;0.70;;;;;;;;;;5019416;28;20010;-76
2023/11/25 05:43:02;;;;;;;3.13;0.65;;;;;;;;;;5026364;28;20081;-74
2023/11/25 05:45:30;;;;;;;1.52;0.47;;;;;;;;;;5018334;28;20021;-78
2023/11/25 05:47:57;;;;;;;1.55;0.77;;;;;;;;;;5017235;28;20027;-76
2023/11/25 05:50:23;;;;;;;0.85;0.40;;;;;;;;;;5019149;28;20062;-75
2023/11/25 05:52:50;;;;;;;3.97;0.90;;;;;;;;;;5017228;28;20062;-77
2023/11/25 05:55:16;;;;;;;1.73;0.47;;;;;;;;;;5017019;28;20033;-75
2023/11/25 05:57:44;;;;;;;2.08;0.68;;;;;;;;;;5016065;28;20062;-76
2023/11/25 06:00:12;;;;;;;3.58;0.43;;;;;;;;;;5017148;28;20035;-76
2023/11/25 06:02:39;;;;;;;1.50;0.45;;;;;;;;;;5016489;28;20050;-76
2023/11/25 06:05:05;;;;;;;0.95;0.45;;;;;;;;;;5008368;28;20548;-78
2023/11/25 06:07:31;;;;;;;0.50;0.50;;;;;;;;;;5012511;28;20082;-76
2023/11/25 06:09:57;;;;;;;0.65;0.30;;;;;;;;;;5014886;28;20232;-76
2023/11/25 06:12:25;;;;;;;1.10;0.55;;;;;;;;;;5023101;28;20057;-77
2023/11/25 06:14:52;;;;;;;2.58;0.30;;;;;;;;;;5035629;23;20009;-82
2023/11/25 06:17:20;;;;;;;0.85;0.40;;;;;;;;;;5043763;28;20026;-82
2023/11/25 06:19:48;;;;;;;0.38;0.38;;;;;;;;;;5050264;28;20467;-81
2023/11/25 06:22:14;;;;;;;1.92;0.40;;;;;;;;;;5046198;28;20033;-82
2023/11/25 06:24:40;;;;;;;0.40;0.40;;;;;;;;;;5049216;28;20021;-83
2023/11/25 06:27:06;;;;;;;0.90;0.45;;;;;;;;;;5043137;28;20022;-83
2023/11/25 06:29:33;;;;;;;1.80;0.40;;;;;;;;;;5043540;28;20033;-82
2023/11/25 06:31:59;;;;;;;1.60;0.65;;;;;;;;;;5057771;28;20109;-83
2023/11/25 06:34:25;;;;;;;4.50;1.02;;;;;;;;;;5044568;28;20034;-84
2023/11/25 06:36:52;;;;;;;1.20;0.40;;;;;;;;;;5049121;28;20489;-83
2023/11/25 06:39:22;;;;;;;2.70;0.45;;;;;;;;;;5042141;28;20025;-83
2023/11/25 06:41:53;;;;;;;1.50;0.45;;;;;;;;;;5054093;28;20474;-82
2023/11/25 06:44:19;;;;;;;0.88;0.45;;;;;;;;;;5053108;28;20380;-82
2023/11/25 06:46:46;;;;;;;0.85;0.35;;;;;;;;;;5043358;28;20093;-81
2023/11/25 06:49:13;;;;;;;2.00;0.43;;;;;;;;;;5049541;28;20032;-82
2023/11/25 06:51:41;;;;;;;1.23;0.63;;;;;;;;;;5043588;28;20037;-83
2023/11/25 06:54:08;;;;;;;3.58;0.80;;;;;;;;;;5058039;28;20021;-82
2023/11/25 06:56:34;;;;;;;1.90;0.60;;;;;;;;;;5051238;28;20021;-82
2023/11/25 06:59:00;;;;;;;0.57;0.50;;;;;;;;;;5063519;28;20025;-82
2023/11/25 07:01:26;;;;;;;1.55;0.65;;;;;;;;;;5068060;28;20022;-82
2023/11/25 07:03:53;;;;;;;1.48;0.30;;;;;;;;;;5056651;28;20085;-82
2023/11/25 07:06:19;;;;;;;2.42;0.75;;;;;;;;;;5065291;28;20041;-82
2023/11/25 07:08:45;;;;;;;4.25;0.80;;;;;;;;;;5051026;28;20037;-82
2023/11/25 07:11:13;;;;;;;0.68;0.50;;;;;;;;;;5055652;28;20059;-82
2023/11/25 07:13:40;;;;;;;2.75;0.70;;;;;;;;;;5063196;28;20037;-81
2023/11/25 07:16:07;;;;;;;0.75;0.55;;;;;;;;;;5062592;28;20099;-81
2023/11/25 07:18:42;;;;;;;0.52;0.22;;;;;;;;;;5048993;28;20025;-82
2023/11/25 07:21:10;;;;;;;0.70;0.45;;;;;;;;;;5053791;28;20089;-81
2023/11/25 07:23:36;;;;;;;2.97;0.68;;;;;;;;;;5047491;28;20097;-82
2023/11/25 07:26:02;;;;;;;1.38;0.50;;;;;;;;;;5046652;28;20154;-81
2023/11/25 07:28:29;;;;;;;0.60;0.50;;;;;;;;;;5045273;28;20025;-81
2023/11/25 07:30:55;;;;;;;1.38;0.70;;;;;;;;;;5045829;28;20506;-82
2023/11/25 07:33:21;;;;;;;2.17;0.63;;;;;;;;;;5046317;28;20021;-81
2023/11/25 07:35:47;;;;;;;0.40;0.40;;;;;;;;;;5047272;28;20098;-81
2023/11/25 07:38:13;;;;;;;1.75;0.50;;;;;;;;;;5064366;28;20009;-82
2023/11/25 07:40:39;;;;;;;0.40;0.40;;;;;;;;;;5060372;28;20051;-81
2023/11/25 07:43:05;;;;;;;3.35;0.50;;;;;;;;;;5059210;28;20044;-80
2023/11/25 07:45:32;;;;;;;0.93;0.40;;;;;;;;;;5055828;28;20021;-80
2023/11/25 07:47:58;;;;;;;1.02;0.40;;;;;;;;;;5054655;28;20021;-82
2023/11/25 07:50:24;;;;;;;0.85;0.70;;;;;;;;;;5049193;28;20025;-82
2023/11/25 07:52:54;;;;;;;1.45;0.50;;;;;;;;;;5053285;28;20086;-80
2023/11/25 07:55:20;;;;;;;0.63;0.38;;;;;;;;;;5055791;28;20028;-80
2023/11/25 07:57:47;;;;;;;1.55;0.50;;;;;;;;;;5059231;28;20024;-80
2023/11/25 08:00:17;;;;;;;2.22;0.70;;;;;;;;;;5071278;28;20033;-83
2023/11/25 08:02:44;;;;;;;2.60;0.57;;;;;;;;;;5041467;28;20021;-83
2023/11/25 08:05:21;;;;;;;2.78;0.68;;;;;;;;;;5065106;28;20047;-83
2023/11/25 08:07:48;;;;;;;2.28;0.50;;;;;;;;;;5058875;28;20088;-81
2023/11/25 08:10:15;;;;;;;1.50;0.70;;;;;;;;;;5054294;28;20030;-82
2023/11/25 08:12:42;;;;;;;2.35;0.70;;;;;;;;;;5089326;28;20012;-81
2023/11/25 08:15:09;;;;;;;1.33;0.70;;;;;;;;;;5057252;28;20035;-81
2023/11/25 08:17:36;;;;;;;1.70;0.55;;;;;;;;;;5066110;28;20025;-81
2023/11/25 08:20:02;;;;;;;1.55;0.47;;;;;;;;;;5061848;28;20017;-82
2023/11/25 08:22:28;;;;;;;0.77;0.52;;;;;;;;;;5046078;28;20025;-81
2023/11/25 08:24:57;;;;;;;2.28;0.60;;;;;;;;;;5044283;28;20028;-81
2023/11/25 08:27:23;;;;;;;2.22;0.55;;;;;;;;;;5047662;28;20021;-82
2023/11/25 08:29:49;;;;;;;1.45;0.55;;;;;;;;;;5042744;28;20025;-82
2023/11/25 08:32:15;;;;;;;1.50;0.40;;;;;;;;;;5062748;28;20048;-83
2023/11/25 08:34:41;;;;;;;1.65;0.70;;;;;;;;;;5050848;28;20114;-82
2023/11/25 08:37:07;;;;;;;0.70;0.30;;;;;;;;;;5047070;28;20169;-82
2023/11/25 08:39:35;;;;;;;0.40;0.40;;;;;;;;;;5040670;28;20352;-82
2023/11/25 08:42:02;;;;;;;1.13;0.50;;;;;;;;;;5071699;28;20008;-81
2023/11/25 08:44:28;;;;;;;1.00;0.55;;;;;;;;;;5046539;28;20052;-83
2023/11/25 08:46:57;;;;;;;0.93;0.50;;;;;;;;;;5043002;28;20128;-83
2023/11/25 08:49:24;;;;;;;2.50;0.73;;;;;;;;;;5045424;28;20369;-83
2023/11/25 08:51:51;;;;;;;2.28;0.75;;;;;;;;;;5047512;28;20022;-83
2023/11/25 08:54:20;;;;;;;2.42;1.00;;;;;;;;;;5038723;28;20109;-83
2023/11/25 08:56:48;;;;;;;2.30;0.70;;;;;;;;;;5055920;28;20113;-82
2023/11/25 08:59:17;;;;;;;2.30;0.80;;;;;;;;;;5047680;28;20066;-83
2023/11/25 09:01:44;;;;;;;4.03;0.98;;;;;;;;;;5040785;28;20091;-82
2023/11/25 09:04:19;;;;;;;1.77;0.70;;;;;;;;;;5039481;28;20085;-82
2023/11/25 09:06:46;;;;;;;2.30;0.70;;;;;;;;;;5047920;28;20033;-83
2023/11/25 09:09:13;;;;;;;3.58;1.00;;;;;;;;;;5046242;28;20025;-82
2023/11/25 09:11:39;;;;;;;3.33;0.90;;;;;;;;;;5070309;28;20048;-81
2023/11/25 09:14:06;;;;;;;1.90;0.63;;;;;;;;;;5078730;28;20498;-82
2023/11/25 09:16:32;;;;;;;4.47;0.98;;;;;;;;;;5066254;28;20027;-81
2023/11/25 09:18:58;;;;;;;2.28;0.80;;;;;;;;;;5039008;28;20117;-82
2023/11/25 09:21:24;;;;;;;1.33;0.90;;;;;;;;;;5041449;28;20026;-81
2023/11/25 09:23:50;;;;;;;2.70;0.88;;;;;;;;;;5052067;28;20024;-81
2023/11/25 09:26:16;;;;;;;2.50;0.90;;;;;;;;;;5044222;28;20096;-83
2023/11/25 09:28:42;;;;;;;4.03;0.77;;;;;;;;;;5045469;28;20037;-81
2023/11/25 09:31:15;;;;;;;0.52;0.40;;;;;;;;;;5048404;28;20021;-82
2023/11/25 09:33:41;;;;;;;3.40;0.80;;;;;;;;;;5057772;28;20126;-82
2023/11/25 09:36:09;;;;;;;5.30;0.63;;;;;;;;;;5049821;28;20384;-83
2023/11/25 09:38:35;;;;;;;4.90;1.10;;;;;;;;;;5054171;28;20044;-82
2023/11/25 09:41:01;;;;;;;3.88;1.23;;;;;;;;;;5064965;28;20021;-82
2023/11/25 09:43:29;;;;;;;2.92;1.13;;;;;;;;;;5078044;28;20035;-81
2023/11/25 09:45:55;;;;;;;1.75;1.02;;;;;;;;;;5058238;28;20080;-81
2023/11/25 09:48:21;;;;;;;4.82;1.48;;;;;;;;;;5060856;28;20076;-83
2023/11/25 09:50:49;;;;;;;4.22;1.20;;;;;;;;;;5053563;28;20026;-82
2023/11/25 09:53:22;;;;;;;2.17;0.77;;;;;;;;;;5048092;28;20022;-82
2023/11/25 09:55:52;;;;;;;2.55;0.95;;;;;;;;;;5041798;28;20025;-84
2023/11/25 09:58:18;;;;;;;3.45;1.10;;;;;;;;;;5058881;28;20131;-84
2023/11/25 10:00:44;;;;;;;3.63;1.02;;;;;;;;;;5043289;28;20028;-81
2023/11/25 10:03:13;;;;;;;5.00;2.20;;;;;;;;;;5046897;28;20049;-82
2023/11/25 10:05:40;;;;;;;4.88;1.02;;;;;;;;;;5056709;28;20025;-83
2023/11/25 10:08:06;;;;;;;3.33;0.80;;;;;;;;;;5048930;28;20024;-81
2023/11/25 10:10:32;;;;;;;3.17;1.40;;;;;;;;;;5065064;28;20025;-81
2023/11/25 10:13:00;;;;;;;7.32;1.38;;;;;;;;;;5076783;28;20019;-80
2023/11/25 10:15:26;;;;;;;4.75;1.15;;;;;;;;;;5058053;28;20045;-79
2023/11/25 10:17:54;;;;;;;4.65;1.10;;;;;;;;;;5058985;28;20058;-81
2023/11/25 10:20:22;;;;;;;4.75;1.70;;;;;;;;;;5057307;28;20258;-81
2023/11/25 10:23:01;;;;;;;4.70;1.42;;;;;;;;;;5050799;28;20097;-81
2023/11/25 10:25:27;;;;;;;3.63;1.00;;;;;;;;;;5060583;28;20021;-81
2023/11/25 10:27:54;;;;;;;3.25;1.02;;;;;;;;;;5052194;28;20136;-82
2023/11/25 10:30:21;;;;;;;2.47;0.80;;;;;;;;;;5060865;28;20037;-81
2023/11/25 10:32:49;;;;;;;6.18;1.73;;;;;;;;;;5053606;28;20026;-82
2023/11/25 10:35:15;;;;;;;4.10;1.15;;;;;;;;;;5055412;28;20018;-81
2023/11/25 10:37:41;;;;;;;7.32;1.35;;;;;;;;;;5053203;28;20029;-81
2023/11/25 10:40:09;;;;;;;2.00;1.10;;;;;;;;;;5057156;28;20079;-84
2023/11/25 10:42:36;;;;;;;3.90;1.38;;;;;;;;;;5075900;28;20091;-83
2023/11/25 10:45:04;;;;;;;4.63;1.10;;;;;;;;;;5054925;28;20025;-82
2023/11/25 10:47:34;;;;;;;4.70;1.33;;;;;;;;;;5044465;28;20049;-82
2023/11/25 10:50:04;;;;;;;2.38;1.15;;;;;;;;;;5047572;28;20025;-83
2023/11/25 10:52:36;;;;;;;3.67;1.17;;;;;;;;;;5062618;28;20009;-83
2023/11/25 10:55:03;;;;;;;4.03;1.27;;;;;;;;;;5041722;28;20025;-82
2023/11/25 10:57:31;;;;;;;10.48;1.58;;;;;;;;;;5045804;28;20013;-86
2023/11/25 10:59:59;;;;;;;5.25;1.30;;;;;;;;;;5067004;28;20036;-82
2023/11/25 11:02:29;;;;;;;6.43;2.00;;;;;;;;;;5061441;28;20025;-83
2023/11/25 11:05:01;;;;;;;3.67;1.30;;;;;;;;;;5044492;28;20021;-84
2023/11/25 11:07:30;;;;;;;3.75;1.25;;;;;;;;;;5053736;28;20035;-83
2023/11/25 11:09:57;;;;;;;3.38;1.17;;;;;;;;;;5055794;28;20029;-83
2023/11/25 11:12:32;;;;;;;2.90;1.33;;;;;;;;;;5070507;28;20403;-86
2023/11/25 11:15:10;;;;;;;2.45;1.50;;;;;;;;;;5050786;28;20070;-81
2023/11/25 11:17:51;;;;;;;4.18;1.50;;;;;;;;;;5058553;28;20378;-82
2023/11/25 11:20:18;;;;;;;6.35;1.70;;;;;;;;;;5045132;28;20059;-83
2023/11/25 11:22:45;;;;;;;6.22;2.35;;;;;;;;;;5048348;28;20025;-80
2023/11/25 11:25:25;;;;;;;3.03;1.20;;;;;;;;;;5042566;28;20073;-81
2023/11/25 11:27:58;;;;;;;3.70;1.55;;;;;;;;;;5047883;28;20049;-80
2023/11/25 11:30:48;;;;;;;5.97;1.58;;;;;;;;;;5057099;28;20159;-82
2023/11/25 11:33:14;;;;;;;2.38;1.27;;;;;;;;;;5059212;28;20045;-81
2023/11/25 11:35:43;;;;;;;7.25;1.45;;;;;;;;;;5069603;28;20021;-80
2023/11/25 11:38:28;;;;;;;2.50;1.25;;;;;;;;;;5064928;28;20025;-81
2023/11/25 11:41:23;;;;;;;5.00;1.70;;;;;;;;;;5064085;28;20028;-81
2023/11/25 11:44:10;;;;;;;4.00;1.38;;;;;;;;;;5069324;28;20076;-81
2023/11/25 11:46:41;;;;;;;3.63;1.42;;;;;;;;;;5060350;28;20025;-81
2023/11/25 11:49:13;;;;;;;6.27;2.33;;;;;;;;;;5057869;28;20024;-81
2023/11/25 11:52:12;;;;;;;6.70;2.00;;;;;;;;;;5048538;28;20364;-82
2023/11/25 11:54:38;;;;;;;3.88;2.20;;;;;;;;;;5017754;28;20040;-81
2023/11/25 11:57:04;;;;;;;10.23;1.73;;;;;;;;;;5038728;28;20018;-81
2023/11/25 11:59:49;;;;;;;4.43;1.67;;;;;;;;;;5041411;28;20018;-81
2023/11/25 12:02:15;;;;;;;4.80;1.55;;;;;;;;;;5046500;28;20087;-81
2023/11/25 12:04:41;;;;;;;4.72;1.83;;;;;;;;;;5040040;28;20025;-81
2023/11/25 12:07:07;;;;;;;3.35;1.55;;;;;;;;;;5037807;28;20021;-81
2023/11/25 12:09:33;;;;;;;6.13;1.83;;;;;;;;;;5037310;28;20028;-80
2023/11/25 12:12:01;;;;;;;4.78;1.67;;;;;;;;;;5046521;28;20021;-81
2023/11/25 12:14:27;;;;;;;3.42;1.65;;;;;;;;;;5056912;28;20091;-80
2023/11/25 12:16:53;;;;;;;4.95;1.75;;;;;;;;;;5050765;23;20070;-77
2023/11/25 12:19:19;;;;;;;4.93;1.40;;;;;;;;;;5043974;28;20028;-77
2023/11/25 12:21:45;;;;;;;2.85;1.10;;;;;;;;;;5049148;28;20101;-77
2023/11/25 12:24:14;;;;;;;11.48;2.05;;;;;;;;;;5050638;28;20108;-81
2023/11/25 12:26:43;;;;;;;3.70;1.92;;;;;;;;;;5041878;28;20113;-78
2023/11/25 12:29:11;;;;;;;4.25;1.63;;;;;;;;;;5048429;28;20064;-78
2023/11/25 12:31:40;;;;;;;8.32;2.42;;;;;;;;;;5039402;28;20041;-80
2023/11/25 12:34:07;;;;;;;4.32;1.55;;;;;;;;;;5043497;28;20038;-78
2023/11/25 12:36:33;;;;;;;4.43;1.95;;;;;;;;;;5038599;28;20034;-78
2023/11/25 12:39:00;;;;;;;8.23;2.30;;;;;;;;;;5045890;28;20026;-78
2023/11/25 12:41:26;;;;;;;4.88;1.42;;;;;;;;;;5046068;28;20018;-79
2023/11/25 12:44:20;;;;;;;7.57;1.35;;;;;;;;;;5054229;28;20018;-79
2023/11/25 12:47:04;;;;;;;6.78;1.60;;;;;;;;;;5051285;28;20029;-79
2023/11/25 12:49:31;;;;;;;2.63;1.70;;;;;;;;;;5043099;28;20531;-79
2023/11/25 12:51:57;;;;;;;4.78;1.10;;;;;;;;;;5045833;28;20045;-78
2023/11/25 12:54:23;;;;;;;2.97;1.67;;;;;;;;;;5033221;28;20006;-79
2023/11/25 12:56:52;;;;;;;7.75;1.80;;;;;;;;;;5029466;28;20037;-78
2023/11/25 12:59:22;;;;;;;9.27;1.90;;;;;;;;;;5040142;28;20045;-78
2023/11/25 13:01:48;;;;;;;7.63;1.50;;;;;;;;;;5030766;28;20061;-79
2023/11/25 13:04:14;;;;;;;7.00;1.27;;;;;;;;;;5018315;28;20045;-79
2023/11/25 13:06:47;;;;;;;4.60;1.52;;;;;;;;;;5014798;28;20061;-79
2023/11/25 13:09:14;;;;;;;4.32;1.40;;;;;;;;;;5023976;28;20441;-79
2023/11/25 13:11:41;;;;;;;6.00;1.70;;;;;;;;;;5024315;28;20030;-79
2023/11/25 13:14:09;;;;;;;4.50;1.50;;;;;;;;;;5027931;28;20045;-78
2023/11/25 13:16:36;;;;;;;5.78;1.20;;;;;;;;;;5039151;28;20034;-77
2023/11/25 13:19:02;;;;;;;7.35;1.80;;;;;;;;;;5019238;28;20029;-81
2023/11/25 13:21:28;;;;;;;3.53;1.48;;;;;;;;;;5017839;28;20026;-82
2023/11/25 13:23:54;;;;;;;5.18;1.58;;;;;;;;;;5026701;28;20025;-81
2023/11/25 13:26:20;;;;;;;5.15;1.48;;;;;;;;;;5020333;28;20087;-81
2023/11/25 13:28:46;;;;;;;2.35;1.30;;;;;;;;;;5016394;28;20486;-81
2023/11/25 13:31:13;;;;;;;5.25;1.65;;;;;;;;;;5015377;28;20370;-80
2023/11/25 13:33:39;;;;;;;4.63;1.63;;;;;;;;;;5016497;28;20481;-80
2023/11/25 13:36:05;;;;;;;5.95;1.65;;;;;;;;;;5014620;28;20022;-80
2023/11/25 13:38:31;;;;;;;6.10;1.77;;;;;;;;;;5013387;28;20095;-80
2023/11/25 13:40:57;;;;;;;3.30;1.42;;;;;;;;;;5025136;28;20025;-80
2023/11/25 13:43:23;;;;;;;8.48;1.52;;;;;;;;;;5027156;28;20035;-81
2023/11/25 13:45:49;;;;;;;3.15;1.45;;;;;;;;;;5017840;28;20025;-82
2023/11/25 13:48:17;;;;;;;3.38;1.33;;;;;;;;;;5014829;28;20029;-80
2023/11/25 13:50:44;;;;;;;2.05;1.10;;;;;;;;;;5016347;28;20040;-81
2023/11/25 13:53:12;;;;;;;7.03;1.48;;;;;;;;;;5015521;28;20381;-81
2023/11/25 13:55:45;;;;;;;4.22;1.20;;;;;;;;;;5020177;28;20022;-81
2023/11/25 13:58:16;;;;;;;3.38;1.58;;;;;;;;;;5019951;28;20034;-82
2023/11/25 14:00:42;;;;;;;2.78;1.52;;;;;;;;;;5027509;28;20490;-81
2023/11/25 14:03:09;;;;;;;3.90;1.30;;;;;;;;;;5019389;28;20026;-81
2023/11/25 14:05:42;;;;;;;5.93;1.55;;;;;;;;;;5025019;28;20033;-80
2023/11/25 14:08:08;;;;;;;6.03;1.80;;;;;;;;;;5030690;28;20024;-82
2023/11/25 14:10:37;;;;;;;3.15;1.30;;;;;;;;;;5032776;28;20423;-79
2023/11/25 14:13:05;;;;;;;6.13;2.28;;;;;;;;;;5034971;28;20030;-80
2023/11/25 14:15:31;;;;;;;2.88;1.42;;;;;;;;;;5032143;28;20098;-81
2023/11/25 14:17:58;;;;;;;6.50;1.85;;;;;;;;;;5040025;28;20026;-81
2023/11/25 14:20:24;;;;;;;6.72;1.75;;;;;;;;;;5038593;28;20037;-81
2023/11/25 14:22:50;;;;;;;8.02;1.80;;;;;;;;;;5027793;28;20030;-82
2023/11/25 14:25:17;;;;;;;6.53;1.40;;;;;;;;;;5020124;28;20040;-80
2023/11/25 14:27:44;;;;;;;5.28;1.60;;;;;;;;;;5019604;28;20030;-81
2023/11/25 14:30:11;;;;;;;6.10;1.70;;;;;;;;;;5018739;28;20038;-80
2023/11/25 14:32:37;;;;;;;6.40;1.77;;;;;;;;;;5018257;28;20068;-81
2023/11/25 14:35:05;;;;;;;5.50;2.00;;;;;;;;;;5020217;28;20029;-81
2023/11/25 14:37:32;;;;;;;5.03;1.58;;;;;;;;;;5018017;28;20022;-81
2023/11/25 14:39:58;;;;;;;3.08;1.55;;;;;;;;;;5019951;28;20470;-79
2023/11/25 14:42:24;;;;;;;3.85;1.60;;;;;;;;;;5034884;28;20026;-80
2023/11/25 14:44:55;;;;;;;9.75;2.63;;;;;;;;;;5020323;28;20029;-80